22ème Rallye Terre des Causses
Championnat de France des Rallyes sur Terre
1 1 CUOQ Jean-Marie/GRANDEMANGE Marielle Citroën C4 WRC FA 8W 3:51,4 93km/h 1
2 3 MAURIN Julien/URAL Olivier Citroën DS3 WRC A 8W 3:51,7 +00:00,3 +00:00,3 1
3 14 FALCO Jean-Marc/BOUERI Jonathan Peugeot 208 T16 R 5 3:58,0 +00:06,6 +00:06,3 1
4 11 GILBERT Quentin/JAMOUL Renaud Skoda Fabia R5 R 5 3:58,2 +00:06,8 +00:00,2
5 12 BERFA Jordan/AUGUSTIN Damien HUYNDAI i20 R5 R 5 4:01,3 +00:09,9 +00:03,1 1
6 18 PONS Xavier/ORIOL Julia Peugeot 208 T16 R 5 4:02,6 +00:11,2 +00:01,3
7 19 MORDACQ Arnaud/RATIER Marie-Noelle Mitsubishi Lancer Evo9 N 4 4:08,1 +00:16,7 +00:05,5 1
8 7 CLOT Charles/LEON Thierry Ford Fiesta WRC A 8W 4:09,1 +00:17,7 +00:01,0 1
9 9 FERAUD Cyrille/DUCHEMIN Aymeric Citroën C4 WRC FA 8W 4:12,8 +00:21,4 +00:03,7 1
10 8 RAOUX Jean-Michel/MAGAT Laurent Citroën DS3 WRC A 8W 4:13,8 +00:22,4 +00:01,0 1
11 4 DURBEC Thibault/RENUCCI Jacques-Julien Citroën DS3 WRC A 8W 4:15,9 +00:24,5 +00:02,1 1
12 5 CHAYNES Gary/TRIBOUT Christian Citroën C4 WRC FA 8W 4:18,3 +00:26,9 +00:02,4 1
13 6 ROUSSET Eric/GOSSET Jean-David Citroën Xsara WRC FA 8W 4:18,9 +00:27,5 +00:00,6
14 16 PETIT Jean-Eric/MAURIN Mathieu Ford Fiesta R5 R 5 4:20,9 +00:29,5 +00:02,0 1
15 70 PINHEIRO Karl-Alexandre/LE FLOCH Franck Peugeot 208 VTI R 2 4:23,4 +00:32,0 +00:02,5 3
16 10 "PIANO"/COTTU Paolo Subaru Impreza WRC FA 8W 4:23,9 +00:32,5 +00:00,5
17 17 FRAU Richard/GASTINEL Jean-Francois Ford Fiesta R5 R 5 4:24,3 +00:32,9 +00:00,4 1
18 21 GIRAUD Emmanuel/GIRAUD Grégory Mitsubishi Lancer Evo8 FA 8 4:24,6 +00:33,2 +00:00,3
19 54 PELLIER Laurent/NEYRET-GIGOT Benoît Peugeot 208 VTI R 2 4:27,4 +00:36,0 +00:02,8 3
20 61 GAGO Diogo/DEL BARRIO GARCIA Rodolfo Peugeot 208 VTI R 2 4:27,8 +00:36,4 +00:00,4 3
21 50 VEYRARD Didier/TARDY Vincent Subaru Impreza STI FN 4 4:28,0 +00:36,6 +00:00,2
22 27 TARDY Guillaume/CHOUDEY Marc-Emilien Subaru Impreza FA 8 4:28,3 +00:36,9 +00:00,3
23 59 RIBAUD Quentin/BALME Benoît Peugeot 208 VTI R 2 4:28,5 +00:37,1 +00:00,2 1 2 3
24 20 GAIDOZ Hervé/RICHARD François Subaru Impreza WRX FA 8 4:28,7 +00:37,3 +00:00,2 1
25 30 CHIAVARO Daniel/DUPANLOUP Alexandra Subaru Impreza Sti FA 8 4:29,1 +00:37,7 +00:00,4
26 36 SALIN Daniel/SALIN Brigitte Subaru Impreza WRX R 4 4:29,2 +00:37,8 +00:00,1
27 62 SAHILA Aki/SUORSA Rami Peugeot 208 VTI R 2 4:29,3 +00:37,9 +00:00,1 3
28 60 LARIO Taisko/RYYNANEN Sami Peugeot 208 VTI R 2 4:29,7 +00:38,3 +00:00,4 3
29 35 MORDACQ Laurent/MORTIER Hervé Mitsubishi Lancer Evo9 R 4 4:30,6 +00:39,2 +00:00,9 1
30 65 BOSCH Florentin/LAZZARINI Jean-Paul Peugeot 208 VTI R 2 4:30,8 +00:39,4 +00:00,2 3
31 15 BESSON Jean-Pascal/ROISSAC Patrice Skoda Fabia R5 R 5 4:31,4 +00:40,0 +00:00,6 1
32 72 TAVENEAU Sam/POINT Clément Peugeot 208 VTI R 2 4:33,2 +00:41,8 +00:01,8 3
33 57 LLARENA Efren/FERNANDEZ Sara Peugeot 208 VTI R 2 4:33,7 +00:42,3 +00:00,5 3
34 63 WAGEMANS Joachim/DU PAN Anton Peugeot 208 VTI R 2 4:33,9 +00:42,5 +00:00,2 3
35 23 FILLAYRE Jacques/DERRE Cyril Mitsubishi Lancer Evo4 FA 8 4:34,5 +00:43,1 +00:00,6
36 87 SALGUES Gilles/MOUYSSET Jérôme Citroën Saxo T4 FA 6K 4:36,1 +00:44,7 +00:01,6
37 69 AUTIERO Matthieu/ANDREU Axel Peugeot 208 VTI R 2 4:36,6 +00:45,2 +00:00,5 3
38 40 MARTI Christian/LAVIALE Jean-Marc Mitsubishi Lancer Evo9 N 4 4:36,7 +00:45,3 +00:00,1 1
39 25 GIORDANENGO Jimmy/DELAMOTTE Alexis Mitsubishi Lancer Evo7 FA 8 4:37,8 +00:46,4 +00:01,1
40 44 GUIGNARD Eric/MEFFRE Didier Subaru Impreza N 4 4:38,4 +00:47,0 +00:00,6
41 37 DESANGLES Yanis/THERON Nicolas Subaru Impreza WRX R 4 4:38,7 +00:47,3 +00:00,3
42 64 HAIGH-SMITH Ashley/BURNS Niall Peugeot 208 VTI R 2 4:39,5 +00:48,1 +00:00,8 3
43 83 MARCHAL Eddy/JOLE Damien Citroën Saxo T4 FA 6K 4:39,9 +00:48,5 +00:00,4 1
44 124 MASCLAUX Arnaud/CORMERAIS Loïc Renault Clio Ragnotti F2 14 4:39,9 +00:48,5 1 2
45 42 CONDAMINES Florian/DELMAS Cyril Subaru Impreza N 4 4:41,4 +00:50,0 +00:01,5
46 90 COLOMBE Geoffroy/FABREGUE Régis Peugeot 206 XS FA 6K 4:42,9 +00:51,5 +00:01,5
47 71 RAMBAUD Sébastien/RICOU Brice Peugeot 208 VTI R 2 4:43,6 +00:52,2 +00:00,7 3
48 91 BERTON Charlotte/TAILLANDIER Thomas Citroën Saxo T4 FA 6K 4:44,4 +00:53,0 +00:00,8
49 81 VIALLE Lilian/GHIRARDELLO Manuel Renault Clio R3 R 3 4:44,7 +00:53,3 +00:00,3 1 2
50 76 COLNEY Thierry/FORTMANN Patrick Citroën DS3 R3 R 3 4:45,0 +00:53,6 +00:00,3 1 2
51 94 JOUINES Jean/CHABBERT Martin Opel Adam Rally R FR2 4:45,2 +00:53,8 +00:00,2
52 75 VENTURINI Henri/CORONA Fabrice Peugeot 208 VTI R 2 4:45,3 +00:53,9 +00:00,1 3
53 46 LOPEZ Yannick/LOPEZ Brice Subaru Impreza WRX N 4 4:46,7 +00:55,3 +00:01,4
54 77 DAZY Jean-Pierre/LOIZEAUX Didier Renault Clio R3 R 3 4:47,0 +00:55,6 +00:00,3 1 2
55 98 DEFANTE Romain/TEMPIER Romain Ford Fiesta R2 R 2 4:47,5 +00:56,1 +00:00,5
56 95 GOUY Quentin/THILLIEZ Quentin Citroën C2 R2 R 2 4:48,1 +00:56,7 +00:00,6
57 73 MOLLARD Alexandre/EYMIN PETOT Nicolas Peugeot 208 VTI R 2 4:48,8 +00:57,4 +00:00,7 3
58 111 PILLARD Cédric/NOHARET Laurent Peugeot 206 Rc F2 14 4:48,9 +00:57,5 +00:00,1 1 2
59 103 TEVELLE Cédric/FACCIO Alexandra Peugeot 206 Rc FA 7 4:49,2 +00:57,8 +00:00,3
60 53 VITAL Jean-Pierre/DECOUZON Pierre Citroën Saxo VTS F2 13 4:50,1 +00:58,7 +00:00,9 1 2
61 99 FOTIA Anthony/MILLET Kévin Ford Fiesta R2 R 2 4:50,1 +00:58,7
62 132 SABATIER Florent/SANTIAGO Thomas Peugeot 106 S16 FA 6 4:51,1 +00:59,7 +00:01,0 1 2
63 116 RAYNAUD Gabriel/JULIEN William Seat Ibiza GTI F2 14 4:51,5 +01:00,1 +00:00,4 1 2
64 67 JAMET Jérémy/SECACHE Michaël Peugeot 208 VTI R 2 4:51,9 +01:00,5 +00:00,4 3
65 117 ROUCOULY Mathieu/GILHODES Jean-Louis Peugeot 309 GTI 16S F2 14 4:52,7 +01:01,3 +00:00,8
66 89 CREPIN Maude/FRANCOIS Léa Citroën Saxo T4 FA 6K 4:52,9 +01:01,5 +00:00,2
67 97 MARGAILLAN Hugo/POUJOL Sébastien Ford Fiesta R2 R 2 4:53,3 +01:01,9 +00:00,4
68 80 GUINCHARD Emmanuel/CHATELAIN Mickaël Peugeot 207 Rc R 3 4:53,4 +01:02,0 +00:00,1
69 52 JULIA David/AUBERTIN Ludovic Peugeot 206 Rc F2 14 4:53,6 +01:02,2 +00:00,2 1 2
70 86 MARCOBAL Thierry/MARCOBAL-BASTIDE Cantin Citroën Saxo T4 FA 6K 4:53,9 +01:02,5 +00:00,3
71 113 BLANCK Lionel/BLANCK Arnaud Peugeot 206 Rc F2 14 4:54,4 +01:03,0 +00:00,5
72 125 BELLIARDO Daniel/BRAQUET Jean-Baptiste Peugeot 306 S16 FN 3 4:54,5 +01:03,1 +00:00,1
73 85 GRIMAUD Roger/GRIMAUD Laurent Citroën Saxo T4 FA 6K 4:55,6 +01:04,2 +00:01,1
74 28 GIL Stéphane/MORGET Arnaud Subaru Impreza WRX FA 8 4:56,0 +01:04,6 +00:00,4
75 145 BRISSON Eddy/MASSON Pascal Suzuki Swift FN 2 4:56,3 +01:04,9 +00:00,3
76 102 SOUFFEZ Frédéric/PRUVOST Astrid Peugeot 206 Rc FA 7 4:56,5 +01:05,1 +00:00,2 1 2
77 48 PRIOLO Laurent/DALMAS Yannick Mitsubishi Lancer Evo9 N 4 4:56,7 +01:05,3 +00:00,2
78 31 MARON-GIRARD Alain/GRENIER Bernard Mitsubishi Lancer Evo9 FA 8 4:57,2 +01:05,8 +00:00,5
79 41 FONTAINE Fabien/FONTAINE Bastien Mitsubishi Lancer Evo5 FN 4 4:57,3 +01:05,9 +00:00,1
80 43 PUEL Gérard/PUEL Caroline Mitsubishi Lancer Evo8 FN 4 4:57,4 +01:06,0 +00:00,1
81 149 RICHAUD Pascal/SENDJAKEDINE Mikael Suzuki Swift Sport FN 2 4:57,4 +01:06,0 1 2
82 112 REGORD Hervé/REGORD Camille Peugeot 205 GTI F2 14 4:58,6 +01:07,2 +00:01,2 1 2
83 96 PUVERIC Gilles/LE BORGNE Didier Peugeot 208 VTI R 2 4:59,9 +01:08,5 +00:01,3
84 115 MORARD Philippe/GROLIER Cédric Citroën ZX 16V F2 14 5:01,3 +01:09,9 +00:01,4
85 151 ROCHE Ivan/GREVOT Florian Peugeot 106 XSI F2 12 5:02,4 +01:11,0 +00:01,1 1 2
86 47 CAMPAGNOLI Gabriele/ARENA Nicola Subaru Impreza WRX N 4 5:02,8 +01:11,4 +00:00,4
87 88 QUARROZ Damien/VOLPI Cécile Citroën Saxo T4 FA 6K 5:03,3 +01:11,9 +00:00,5
88 92 BRENIAUX Sébastien/JACQUES Anthony Peugeot 206 XS FA 6K 5:03,9 +01:12,5 +00:00,6
89 134 RALITE Christophe/ABBAL Marie Peugeot 106 S16 FA 6 5:05,1 +01:13,7 +00:01,2
90 39 BENIER Thomas/PRASSE Cédric Subaru Impreza WRX N 4 5:06,1 +01:14,7 +00:01,0 1
91 127 LESCURE Philippe/ESCAICH Bertrand Peugeot 306 S16 FN 3 5:06,6 +01:15,2 +00:00,5
92 138 CAYLA Corentin/DUMAS Bastien Citroën Saxo VTS F2 13 5:07,0 +01:15,6 +00:00,4
93 107 ROCHER Arnaud/PAULHAN Sabine Renault Clio RS FA 7 5:08,6 +01:17,2 +00:01,6
94 33 ROUGIER Régis/SOGNO Emilien Subaru Impreza WRX FA 8 5:09,3 +01:17,9 +00:00,7
95 78 BOUCHET Guillaume/BLAMPEY Fabien Peugeot 207 Rc R 3 5:12,1 +01:20,7 +00:02,8
96 136 FOURNIER Nicolas/VATTEAU Kévin Peugeot 206 XS F2 13 5:13,9 +01:22,5 +00:01,8
97 106 GELLUSSEAU Luc/DEJOUX Charly Peugeot 306 S16 FA 7 5:17,6 +01:26,2 +00:03,7
98 119 MOULIN François/BONNET Dorine Renault Clio RS F2 14 5:17,9 +01:26,5 +00:00,3
99 126 VANTILLARD Jean-Marc/DARRAS Pascaline Peugeot 206 Rc FN 3 5:19,3 +01:27,9 +00:01,4
100 150 VAILLE Mickaël/SAVA-LOPEZ Sabrina Peugeot 205 GTI FN 2 5:20,6 +01:29,2 +00:01,3
101 38 MOREL Jean-Luc/GIDEL Philippe Subaru Impreza WRX FN 4 5:21,0 +01:29,6 +00:00,4
102 135 RAMEL Olivier/BODENMANN Jacques-Victor Peugeot 106 GT FA 6 5:21,1 +01:29,7 +00:00,1
103 120 RIEU Vincent/DEIXONNE Charles Renault Clio Ragnotti F2 14 5:21,4 +01:30,0 +00:00,3
104 139 GELY Michel/VALENTIN Cédric Peugeot 206 XS F2 13 5:21,6 +01:30,2 +00:00,2
105 140 VAYSSE Adrien/LAURENS Clément Peugeot 106 S16 F2 13 5:24,5 +01:33,1 +00:02,9
106 152 VUITTENEZ Victorien/COTE COLISSON Maxime Peugeot 106 XSI FN 1 5:25,2 +01:33,8 +00:00,7
107 129 GAGNEUR Hervé/LEIBENGUTH Christophe Peugeot 306 S16 FN 3 5:26,3 +01:34,9 +00:01,1
108 108 GUILLON Jean-Luc/GUILLON Thibault Peugeot 206 GT FA 7 5:27,3 +01:35,9 +00:01,0
109 144 TODESCHINI Florent/PORCHERON Giovanni Dacia Logan F2 13 5:27,8 +01:36,4 +00:00,5
110 45 ECK Jean-Luc/ECK Aurélien Subaru Impreza N 4 5:28,3 +01:36,9 +00:00,5
111 146 DOLGOPYATOFF Damien/FRANCOIS Solene Suzuki Swift FN 2 5:28,7 +01:37,3 +00:00,4
112 142 BRENGUES Jean-Marie/BRENGUES Mélanie Peugeot 205 GTI F2 13 5:30,8 +01:39,4 +00:02,1
113 154 BES Yves/LE PICHON Christelle Peugeot 106 XR F2 11 5:32,2 +01:40,8 +00:01,4
114 153 CEUGNET Sébastien/LUCON Pascal Peugeot 106 XSI FN 1 5:36,7 +01:45,3 +00:04,5
115 26 GLEY Jean-Pierre/AUBANEL Aurélien B.M.W. 325 iX FA 8 5:40,3 +01:48,9 +00:03,6
116 105 GAUTHIER Bernard/BLANQUET Muriel Peugeot 306 S16 FA 7 5:41,7 +01:50,3 +00:01,4
117 104 FRELAUT Yohann/CASSAGNADE Pascal Peugeot 206 Rc FA 7 5:43,2 +01:51,8 +00:01,5
118 148 LATIEZE Yvan/GOUY Cindy Peugeot 106 S16 FN 2 5:44,1 +01:52,7 +00:00,9
119 130 RESSOUCHE Charlotte/BARDOUX Pauline Ford Fiesta ST N 3 5:48,5 +01:57,1 +00:04,4
120 137 RAKOTOMALALA Andry/GORGET Chloé Peugeot 106 S16 F2 13 5:49,2 +01:57,8 +00:00,7
121 155 SOUBIROUX Vincent/VIGUIE Florian Renault Clio F2 11 6:06,5 +02:15,1 +00:17,3
122 141 PICARD Erick/PONTILLE Hervé Dacia Logan F2 13 6:06,6 +02:15,2 +00:00,1
123 147 DI PAOLO Alain/MORILLON Frederika Peugeot 106 S16 FN 2 6:20,3 +02:28,9 +00:13,7
Clt Equipage Voiture Gr/Cl Temps Ecart 1er Ecart préc. Catégories
Commentaires: © PatricK Soft  
(Temps forfaitaires=couleur bleue)
Classés:123

Epreuve: Groupe: Catégorie:

 
Retour
Classement ES5-La Bouyssière - Foissac (6.000 km)